sensor_id;sensor_type;location;lat;lon;timestamp;P1;durP1;ratioP1;P2;durP2;ratioP2
76636;SDS011;65532;52.124;5.480;2023-05-20T00:00:41;6.25;;;2.00;;
76636;SDS011;65532;52.124;5.480;2023-05-20T00:03:07;3.10;;;1.90;;
76636;SDS011;65532;52.124;5.480;2023-05-20T00:05:34;5.13;;;1.45;;
76636;SDS011;65532;52.124;5.480;2023-05-20T00:08:00;6.28;;;2.22;;
76636;SDS011;65532;52.124;5.480;2023-05-20T00:10:29;9.40;;;2.17;;
76636;SDS011;65532;52.124;5.480;2023-05-20T00:12:56;6.65;;;1.85;;
76636;SDS011;65532;52.124;5.480;2023-05-20T00:15:22;5.72;;;1.65;;
76636;SDS011;65532;52.124;5.480;2023-05-20T00:17:49;4.85;;;2.08;;
76636;SDS011;65532;52.124;5.480;2023-05-20T00:20:15;5.43;;;1.48;;
76636;SDS011;65532;52.124;5.480;2023-05-20T00:22:42;6.20;;;2.05;;
76636;SDS011;65532;52.124;5.480;2023-05-20T00:25:08;8.43;;;1.92;;
76636;SDS011;65532;52.124;5.480;2023-05-20T00:27:35;7.78;;;2.28;;
76636;SDS011;65532;52.124;5.480;2023-05-20T00:30:01;7.13;;;2.35;;
76636;SDS011;65532;52.124;5.480;2023-05-20T00:32:28;4.78;;;2.20;;
76636;SDS011;65532;52.124;5.480;2023-05-20T00:34:55;7.47;;;2.38;;
76636;SDS011;65532;52.124;5.480;2023-05-20T00:37:23;5.35;;;1.80;;
76636;SDS011;65532;52.124;5.480;2023-05-20T00:39:50;7.22;;;1.77;;
76636;SDS011;65532;52.124;5.480;2023-05-20T00:42:20;7.65;;;2.55;;
76636;SDS011;65532;52.124;5.480;2023-05-20T00:44:48;5.00;;;1.75;;
76636;SDS011;65532;52.124;5.480;2023-05-20T00:47:15;9.48;;;2.67;;
76636;SDS011;65532;52.124;5.480;2023-05-20T00:49:47;4.10;;;2.00;;
76636;SDS011;65532;52.124;5.480;2023-05-20T00:52:17;7.40;;;2.25;;
76636;SDS011;65532;52.124;5.480;2023-05-20T00:54:44;4.95;;;1.80;;
76636;SDS011;65532;52.124;5.480;2023-05-20T00:57:11;6.07;;;1.50;;
76636;SDS011;65532;52.124;5.480;2023-05-20T00:59:38;4.65;;;1.52;;
76636;SDS011;65532;52.124;5.480;2023-05-20T01:02:08;5.78;;;2.30;;
76636;SDS011;65532;52.124;5.480;2023-05-20T01:04:35;5.97;;;2.00;;
76636;SDS011;65532;52.124;5.480;2023-05-20T01:07:02;6.30;;;1.92;;
76636;SDS011;65532;52.124;5.480;2023-05-20T01:09:31;9.77;;;2.08;;
76636;SDS011;65532;52.124;5.480;2023-05-20T01:12:02;8.00;;;2.03;;
76636;SDS011;65532;52.124;5.480;2023-05-20T01:14:36;6.38;;;1.88;;
76636;SDS011;65532;52.124;5.480;2023-05-20T01:17:14;6.30;;;2.13;;
76636;SDS011;65532;52.124;5.480;2023-05-20T01:19:46;5.50;;;1.98;;
76636;SDS011;65532;52.124;5.480;2023-05-20T01:22:14;5.13;;;2.13;;
76636;SDS011;65532;52.124;5.480;2023-05-20T01:24:41;6.75;;;1.98;;
76636;SDS011;65532;52.124;5.480;2023-05-20T01:27:10;7.25;;;2.13;;
76636;SDS011;65532;52.124;5.480;2023-05-20T01:29:40;5.88;;;1.75;;
76636;SDS011;65532;52.124;5.480;2023-05-20T01:32:11;7.78;;;2.25;;
76636;SDS011;65532;52.124;5.480;2023-05-20T01:34:52;9.45;;;2.35;;
76636;SDS011;65532;52.124;5.480;2023-05-20T01:37:19;4.25;;;2.17;;
76636;SDS011;65532;52.124;5.480;2023-05-20T01:39:48;5.88;;;2.03;;
76636;SDS011;65532;52.124;5.480;2023-05-20T01:42:16;7.03;;;2.00;;
76636;SDS011;65532;52.124;5.480;2023-05-20T01:44:44;7.10;;;2.42;;
76636;SDS011;65532;52.124;5.480;2023-05-20T01:47:11;5.20;;;1.83;;
76636;SDS011;65532;52.124;5.480;2023-05-20T01:49:40;5.40;;;1.80;;
76636;SDS011;65532;52.124;5.480;2023-05-20T01:52:06;7.82;;;1.88;;
76636;SDS011;65532;52.124;5.480;2023-05-20T01:54:34;7.43;;;1.75;;
76636;SDS011;65532;52.124;5.480;2023-05-20T01:57:00;5.22;;;1.70;;
76636;SDS011;65532;52.124;5.480;2023-05-20T01:59:28;4.38;;;1.88;;
76636;SDS011;65532;52.124;5.480;2023-05-20T02:01:54;6.22;;;2.25;;
76636;SDS011;65532;52.124;5.480;2023-05-20T02:04:21;5.68;;;1.98;;
76636;SDS011;65532;52.124;5.480;2023-05-20T02:06:47;4.75;;;1.45;;
76636;SDS011;65532;52.124;5.480;2023-05-20T02:09:14;5.43;;;1.70;;
76636;SDS011;65532;52.124;5.480;2023-05-20T02:11:41;6.80;;;1.38;;
76636;SDS011;65532;52.124;5.480;2023-05-20T02:14:07;6.22;;;1.73;;
76636;SDS011;65532;52.124;5.480;2023-05-20T02:16:34;6.00;;;1.98;;
76636;SDS011;65532;52.124;5.480;2023-05-20T02:19:00;5.45;;;2.35;;
76636;SDS011;65532;52.124;5.480;2023-05-20T02:21:27;6.40;;;2.30;;
76636;SDS011;65532;52.124;5.480;2023-05-20T02:23:53;5.28;;;1.83;;
76636;SDS011;65532;52.124;5.480;2023-05-20T02:26:20;4.85;;;1.60;;
76636;SDS011;65532;52.124;5.480;2023-05-20T02:28:47;5.35;;;2.42;;
76636;SDS011;65532;52.124;5.480;2023-05-20T02:31:16;5.15;;;1.98;;
76636;SDS011;65532;52.124;5.480;2023-05-20T02:33:43;8.32;;;1.92;;
76636;SDS011;65532;52.124;5.480;2023-05-20T02:36:11;6.53;;;2.00;;
76636;SDS011;65532;52.124;5.480;2023-05-20T02:38:37;7.07;;;1.75;;
76636;SDS011;65532;52.124;5.480;2023-05-20T02:41:04;7.78;;;1.95;;
76636;SDS011;65532;52.124;5.480;2023-05-20T02:43:31;8.38;;;2.05;;
76636;SDS011;65532;52.124;5.480;2023-05-20T02:45:59;5.10;;;1.40;;
76636;SDS011;65532;52.124;5.480;2023-05-20T02:48:26;3.85;;;1.75;;
76636;SDS011;65532;52.124;5.480;2023-05-20T02:50:52;4.45;;;1.33;;
76636;SDS011;65532;52.124;5.480;2023-05-20T02:53:19;5.60;;;1.58;;
76636;SDS011;65532;52.124;5.480;2023-05-20T02:55:46;4.18;;;2.45;;
76636;SDS011;65532;52.124;5.480;2023-05-20T02:58:13;5.88;;;2.17;;
76636;SDS011;65532;52.124;5.480;2023-05-20T03:00:40;5.38;;;1.73;;
76636;SDS011;65532;52.124;5.480;2023-05-20T03:03:07;4.63;;;1.85;;
76636;SDS011;65532;52.124;5.480;2023-05-20T03:05:36;7.53;;;1.70;;
76636;SDS011;65532;52.124;5.480;2023-05-20T03:08:12;6.10;;;2.00;;
76636;SDS011;65532;52.124;5.480;2023-05-20T03:10:38;5.30;;;1.70;;
76636;SDS011;65532;52.124;5.480;2023-05-20T03:13:06;4.78;;;2.22;;
76636;SDS011;65532;52.124;5.480;2023-05-20T03:15:40;6.50;;;1.80;;
76636;SDS011;65532;52.124;5.480;2023-05-20T03:18:07;6.60;;;2.30;;
76636;SDS011;65532;52.124;5.480;2023-05-20T03:20:35;4.90;;;1.60;;
76636;SDS011;65532;52.124;5.480;2023-05-20T03:25:34;5.28;;;1.95;;
76636;SDS011;65532;52.124;5.480;2023-05-20T03:28:01;7.45;;;2.13;;
76636;SDS011;65532;52.124;5.480;2023-05-20T03:30:28;5.95;;;1.42;;
76636;SDS011;65532;52.124;5.480;2023-05-20T03:32:56;9.50;;;2.47;;
76636;SDS011;65532;52.124;5.480;2023-05-20T03:35:25;4.93;;;1.83;;
76636;SDS011;65532;52.124;5.480;2023-05-20T03:37:52;9.50;;;2.75;;
76636;SDS011;65532;52.124;5.480;2023-05-20T03:40:21;6.30;;;1.98;;
76636;SDS011;65532;52.124;5.480;2023-05-20T03:42:48;7.10;;;1.88;;
76636;SDS011;65532;52.124;5.480;2023-05-20T03:45:18;5.63;;;2.35;;
76636;SDS011;65532;52.124;5.480;2023-05-20T03:48:01;7.53;;;2.20;;
76636;SDS011;65532;52.124;5.480;2023-05-20T03:50:30;6.45;;;1.77;;
76636;SDS011;65532;52.124;5.480;2023-05-20T03:52:58;6.18;;;2.17;;
76636;SDS011;65532;52.124;5.480;2023-05-20T03:55:26;5.45;;;2.83;;
76636;SDS011;65532;52.124;5.480;2023-05-20T03:57:53;6.55;;;2.28;;
76636;SDS011;65532;52.124;5.480;2023-05-20T04:00:20;7.43;;;1.67;;
76636;SDS011;65532;52.124;5.480;2023-05-20T04:02:47;6.72;;;2.58;;
76636;SDS011;65532;52.124;5.480;2023-05-20T04:05:16;9.07;;;2.90;;
76636;SDS011;65532;52.124;5.480;2023-05-20T04:07:44;4.65;;;2.08;;
76636;SDS011;65532;52.124;5.480;2023-05-20T04:10:12;5.55;;;2.13;;
76636;SDS011;65532;52.124;5.480;2023-05-20T04:12:38;4.90;;;1.95;;
76636;SDS011;65532;52.124;5.480;2023-05-20T04:15:05;7.43;;;1.95;;
76636;SDS011;65532;52.124;5.480;2023-05-20T04:17:44;7.13;;;2.22;;
76636;SDS011;65532;52.124;5.480;2023-05-20T04:20:13;6.35;;;2.28;;
76636;SDS011;65532;52.124;5.480;2023-05-20T04:22:40;5.93;;;1.88;;
76636;SDS011;65532;52.124;5.480;2023-05-20T04:25:07;6.72;;;2.38;;
76636;SDS011;65532;52.124;5.480;2023-05-20T04:27:35;7.00;;;2.90;;
76636;SDS011;65532;52.124;5.480;2023-05-20T04:30:05;4.72;;;2.13;;
76636;SDS011;65532;52.124;5.480;2023-05-20T04:32:36;6.82;;;2.13;;
76636;SDS011;65532;52.124;5.480;2023-05-20T04:35:04;7.13;;;2.60;;
76636;SDS011;65532;52.124;5.480;2023-05-20T04:37:38;6.18;;;2.20;;
76636;SDS011;65532;52.124;5.480;2023-05-20T04:40:05;6.43;;;2.75;;
76636;SDS011;65532;52.124;5.480;2023-05-20T04:42:34;5.68;;;2.05;;
76636;SDS011;65532;52.124;5.480;2023-05-20T04:45:00;10.95;;;3.03;;
76636;SDS011;65532;52.124;5.480;2023-05-20T04:47:29;6.03;;;2.58;;
76636;SDS011;65532;52.124;5.480;2023-05-20T04:49:56;6.65;;;2.38;;
76636;SDS011;65532;52.124;5.480;2023-05-20T04:52:23;5.93;;;2.33;;
76636;SDS011;65532;52.124;5.480;2023-05-20T04:54:50;6.55;;;2.92;;
76636;SDS011;65532;52.124;5.480;2023-05-20T04:57:17;8.18;;;2.22;;
76636;SDS011;65532;52.124;5.480;2023-05-20T04:59:47;8.25;;;2.38;;
76636;SDS011;65532;52.124;5.480;2023-05-20T05:02:13;5.55;;;2.25;;
76636;SDS011;65532;52.124;5.480;2023-05-20T05:04:40;5.45;;;2.47;;
76636;SDS011;65532;52.124;5.480;2023-05-20T05:07:07;7.00;;;2.78;;
76636;SDS011;65532;52.124;5.480;2023-05-20T05:09:33;12.25;;;2.17;;
76636;SDS011;65532;52.124;5.480;2023-05-20T05:12:00;5.53;;;1.67;;
76636;SDS011;65532;52.124;5.480;2023-05-20T05:14:27;6.88;;;2.33;;
76636;SDS011;65532;52.124;5.480;2023-05-20T05:16:54;4.40;;;1.85;;
76636;SDS011;65532;52.124;5.480;2023-05-20T05:19:21;6.93;;;2.75;;
76636;SDS011;65532;52.124;5.480;2023-05-20T05:21:48;5.13;;;2.20;;
76636;SDS011;65532;52.124;5.480;2023-05-20T05:24:14;7.45;;;2.00;;
76636;SDS011;65532;52.124;5.480;2023-05-20T05:26:41;5.25;;;2.00;;
76636;SDS011;65532;52.124;5.480;2023-05-20T05:29:08;6.18;;;1.85;;
76636;SDS011;65532;52.124;5.480;2023-05-20T05:31:36;6.40;;;1.92;;
76636;SDS011;65532;52.124;5.480;2023-05-20T05:34:03;4.43;;;1.67;;
76636;SDS011;65532;52.124;5.480;2023-05-20T05:36:31;11.98;;;1.80;;
76636;SDS011;65532;52.124;5.480;2023-05-20T05:38:59;4.50;;;1.70;;
76636;SDS011;65532;52.124;5.480;2023-05-20T05:41:25;7.38;;;1.58;;
76636;SDS011;65532;52.124;5.480;2023-05-20T05:43:52;3.40;;;1.55;;
76636;SDS011;65532;52.124;5.480;2023-05-20T05:46:19;4.18;;;1.60;;
76636;SDS011;65532;52.124;5.480;2023-05-20T05:48:46;3.58;;;1.55;;
76636;SDS011;65532;52.124;5.480;2023-05-20T05:51:15;5.07;;;1.83;;
76636;SDS011;65532;52.124;5.480;2023-05-20T05:53:43;5.43;;;2.00;;
76636;SDS011;65532;52.124;5.480;2023-05-20T05:56:09;5.57;;;1.63;;
76636;SDS011;65532;52.124;5.480;2023-05-20T05:58:36;4.53;;;1.55;;
76636;SDS011;65532;52.124;5.480;2023-05-20T06:01:05;6.05;;;1.80;;
76636;SDS011;65532;52.124;5.480;2023-05-20T06:03:32;5.00;;;1.67;;
76636;SDS011;65532;52.124;5.480;2023-05-20T06:05:58;4.80;;;1.80;;
76636;SDS011;65532;52.124;5.480;2023-05-20T06:08:25;4.05;;;1.40;;
76636;SDS011;65532;52.124;5.480;2023-05-20T06:10:52;5.68;;;1.45;;
76636;SDS011;65532;52.124;5.480;2023-05-20T06:13:18;4.88;;;1.80;;
76636;SDS011;65532;52.124;5.480;2023-05-20T06:15:47;4.47;;;1.45;;
76636;SDS011;65532;52.124;5.480;2023-05-20T06:18:15;4.65;;;1.38;;
76636;SDS011;65532;52.124;5.480;2023-05-20T06:20:42;5.18;;;2.05;;
76636;SDS011;65532;52.124;5.480;2023-05-20T06:23:09;5.10;;;1.67;;
76636;SDS011;65532;52.124;5.480;2023-05-20T06:25:57;4.75;;;1.40;;
76636;SDS011;65532;52.124;5.480;2023-05-20T06:28:25;4.45;;;1.23;;
76636;SDS011;65532;52.124;5.480;2023-05-20T06:30:55;4.88;;;1.55;;
76636;SDS011;65532;52.124;5.480;2023-05-20T06:33:24;3.00;;;1.45;;
76636;SDS011;65532;52.124;5.480;2023-05-20T06:35:53;5.85;;;1.30;;
76636;SDS011;65532;52.124;5.480;2023-05-20T06:38:21;5.90;;;1.80;;
76636;SDS011;65532;52.124;5.480;2023-05-20T06:40:49;3.08;;;1.08;;
76636;SDS011;65532;52.124;5.480;2023-05-20T06:43:16;4.82;;;1.40;;
76636;SDS011;65532;52.124;5.480;2023-05-20T06:46:03;2.78;;;0.55;;
76636;SDS011;65532;52.124;5.480;2023-05-20T06:48:50;4.30;;;0.95;;
76636;SDS011;65532;52.124;5.480;2023-05-20T06:51:16;4.15;;;1.40;;
76636;SDS011;65532;52.124;5.480;2023-05-20T06:53:45;5.38;;;1.02;;
76636;SDS011;65532;52.124;5.480;2023-05-20T06:56:13;4.13;;;0.82;;
76636;SDS011;65532;52.124;5.480;2023-05-20T06:58:39;3.30;;;1.08;;
76636;SDS011;65532;52.124;5.480;2023-05-20T07:01:06;2.83;;;1.10;;
76636;SDS011;65532;52.124;5.480;2023-05-20T07:03:33;3.20;;;1.58;;
76636;SDS011;65532;52.124;5.480;2023-05-20T07:06:00;5.30;;;1.63;;
76636;SDS011;65532;52.124;5.480;2023-05-20T07:08:27;5.70;;;1.10;;
76636;SDS011;65532;52.124;5.480;2023-05-20T07:10:56;4.22;;;1.08;;
76636;SDS011;65532;52.124;5.480;2023-05-20T07:13:23;2.97;;;0.85;;
76636;SDS011;65532;52.124;5.480;2023-05-20T07:15:51;2.97;;;0.73;;
76636;SDS011;65532;52.124;5.480;2023-05-20T07:18:18;3.33;;;0.73;;
76636;SDS011;65532;52.124;5.480;2023-05-20T07:20:49;4.32;;;1.50;;
76636;SDS011;65532;52.124;5.480;2023-05-20T07:23:35;4.05;;;1.45;;
76636;SDS011;65532;52.124;5.480;2023-05-20T07:26:02;3.25;;;0.75;;
76636;SDS011;65532;52.124;5.480;2023-05-20T07:28:28;3.30;;;1.02;;
76636;SDS011;65532;52.124;5.480;2023-05-20T07:30:56;3.13;;;1.25;;
76636;SDS011;65532;52.124;5.480;2023-05-20T07:33:25;4.70;;;0.68;;
76636;SDS011;65532;52.124;5.480;2023-05-20T07:35:52;4.18;;;1.10;;
76636;SDS011;65532;52.124;5.480;2023-05-20T07:38:20;3.70;;;0.95;;
76636;SDS011;65532;52.124;5.480;2023-05-20T07:40:53;3.55;;;1.27;;
76636;SDS011;65532;52.124;5.480;2023-05-20T07:43:20;4.45;;;1.15;;
76636;SDS011;65532;52.124;5.480;2023-05-20T07:45:47;2.58;;;1.15;;
76636;SDS011;65532;52.124;5.480;2023-05-20T07:48:13;3.83;;;0.90;;
76636;SDS011;65532;52.124;5.480;2023-05-20T07:50:40;4.47;;;0.90;;
76636;SDS011;65532;52.124;5.480;2023-05-20T07:53:07;3.25;;;0.80;;
76636;SDS011;65532;52.124;5.480;2023-05-20T07:55:34;3.00;;;0.80;;
76636;SDS011;65532;52.124;5.480;2023-05-20T07:58:04;4.05;;;0.65;;
76636;SDS011;65532;52.124;5.480;2023-05-20T08:00:33;4.95;;;1.10;;
76636;SDS011;65532;52.124;5.480;2023-05-20T08:03:02;2.47;;;0.57;;
76636;SDS011;65532;52.124;5.480;2023-05-20T08:05:40;2.13;;;0.57;;
76636;SDS011;65532;52.124;5.480;2023-05-20T08:08:07;2.03;;;0.57;;
76636;SDS011;65532;52.124;5.480;2023-05-20T08:10:46;2.58;;;0.57;;
76636;SDS011;65532;52.124;5.480;2023-05-20T08:13:13;2.03;;;0.45;;
76636;SDS011;65532;52.124;5.480;2023-05-20T08:15:39;3.47;;;0.30;;
76636;SDS011;65532;52.124;5.480;2023-05-20T08:18:06;1.73;;;0.47;;
76636;SDS011;65532;52.124;5.480;2023-05-20T08:20:33;5.85;;;0.70;;
76636;SDS011;65532;52.124;5.480;2023-05-20T08:22:59;3.13;;;0.52;;
76636;SDS011;65532;52.124;5.480;2023-05-20T08:25:26;2.70;;;0.60;;
76636;SDS011;65532;52.124;5.480;2023-05-20T08:27:53;4.60;;;1.00;;
76636;SDS011;65532;52.124;5.480;2023-05-20T08:30:19;2.28;;;0.57;;
76636;SDS011;65532;52.124;5.480;2023-05-20T08:32:46;2.83;;;0.50;;
76636;SDS011;65532;52.124;5.480;2023-05-20T08:35:14;4.18;;;0.60;;
76636;SDS011;65532;52.124;5.480;2023-05-20T08:37:41;3.55;;;0.40;;
76636;SDS011;65532;52.124;5.480;2023-05-20T08:40:07;3.25;;;0.63;;
76636;SDS011;65532;52.124;5.480;2023-05-20T08:42:35;2.88;;;0.80;;
76636;SDS011;65532;52.124;5.480;2023-05-20T08:45:02;3.47;;;0.47;;
76636;SDS011;65532;52.124;5.480;2023-05-20T08:47:30;4.18;;;1.52;;
76636;SDS011;65532;52.124;5.480;2023-05-20T08:49:57;2.25;;;0.73;;
76636;SDS011;65532;52.124;5.480;2023-05-20T08:52:23;3.80;;;0.95;;
76636;SDS011;65532;52.124;5.480;2023-05-20T08:54:51;1.95;;;0.50;;
76636;SDS011;65532;52.124;5.480;2023-05-20T08:57:19;1.92;;;0.52;;
76636;SDS011;65532;52.124;5.480;2023-05-20T08:59:46;3.42;;;0.70;;
76636;SDS011;65532;52.124;5.480;2023-05-20T09:02:13;2.63;;;0.77;;
76636;SDS011;65532;52.124;5.480;2023-05-20T09:04:40;2.00;;;0.52;;
76636;SDS011;65532;52.124;5.480;2023-05-20T09:07:07;2.38;;;0.73;;
76636;SDS011;65532;52.124;5.480;2023-05-20T09:09:34;3.50;;;0.70;;
76636;SDS011;65532;52.124;5.480;2023-05-20T09:12:01;3.72;;;0.50;;
76636;SDS011;65532;52.124;5.480;2023-05-20T09:14:28;3.05;;;1.42;;
76636;SDS011;65532;52.124;5.480;2023-05-20T09:16:56;4.93;;;0.63;;
76636;SDS011;65532;52.124;5.480;2023-05-20T09:19:22;3.22;;;1.08;;
76636;SDS011;65532;52.124;5.480;2023-05-20T09:21:51;2.67;;;0.50;;
76636;SDS011;65532;52.124;5.480;2023-05-20T09:24:21;2.63;;;0.65;;
76636;SDS011;65532;52.124;5.480;2023-05-20T09:26:48;3.47;;;0.60;;
76636;SDS011;65532;52.124;5.480;2023-05-20T09:29:15;4.25;;;0.60;;
76636;SDS011;65532;52.124;5.480;2023-05-20T09:31:41;2.80;;;0.60;;
76636;SDS011;65532;52.124;5.480;2023-05-20T09:34:08;2.58;;;0.43;;
76636;SDS011;65532;52.124;5.480;2023-05-20T09:36:36;5.68;;;1.08;;
76636;SDS011;65532;52.124;5.480;2023-05-20T09:39:13;2.85;;;1.70;;
76636;SDS011;65532;52.124;5.480;2023-05-20T09:44:29;5.00;;;0.70;;
76636;SDS011;65532;52.124;5.480;2023-05-20T09:46:57;4.15;;;0.60;;
76636;SDS011;65532;52.124;5.480;2023-05-20T09:49:24;3.38;;;0.60;;
76636;SDS011;65532;52.124;5.480;2023-05-20T09:51:52;3.08;;;0.40;;
76636;SDS011;65532;52.124;5.480;2023-05-20T09:54:18;2.33;;;0.40;;
76636;SDS011;65532;52.124;5.480;2023-05-20T09:56:46;2.20;;;0.52;;
76636;SDS011;65532;52.124;5.480;2023-05-20T09:59:14;3.90;;;0.70;;
76636;SDS011;65532;52.124;5.480;2023-05-20T10:01:43;3.17;;;0.40;;
76636;SDS011;65532;52.124;5.480;2023-05-20T10:04:10;3.13;;;0.60;;
76636;SDS011;65532;52.124;5.480;2023-05-20T10:06:53;2.90;;;0.43;;
76636;SDS011;65532;52.124;5.480;2023-05-20T10:12:26;2.08;;;0.43;;
76636;SDS011;65532;52.124;5.480;2023-05-20T10:15:21;3.28;;;0.55;;
76636;SDS011;65532;52.124;5.480;2023-05-20T10:18:03;2.72;;;0.88;;
76636;SDS011;65532;52.124;5.480;2023-05-20T10:20:59;5.35;;;0.68;;
76636;SDS011;65532;52.124;5.480;2023-05-20T10:23:29;2.20;;;0.65;;
76636;SDS011;65532;52.124;5.480;2023-05-20T10:25:56;2.67;;;0.73;;
76636;SDS011;65532;52.124;5.480;2023-05-20T10:28:31;2.45;;;0.57;;
76636;SDS011;65532;52.124;5.480;2023-05-20T10:30:59;1.42;;;0.50;;
76636;SDS011;65532;52.124;5.480;2023-05-20T10:33:26;2.30;;;0.63;;
76636;SDS011;65532;52.124;5.480;2023-05-20T10:35:56;2.40;;;0.70;;
76636;SDS011;65532;52.124;5.480;2023-05-20T10:38:23;2.60;;;0.40;;
76636;SDS011;65532;52.124;5.480;2023-05-20T10:40:51;2.80;;;0.85;;
76636;SDS011;65532;52.124;5.480;2023-05-20T10:43:24;4.18;;;1.08;;
76636;SDS011;65532;52.124;5.480;2023-05-20T10:45:54;2.25;;;0.65;;
76636;SDS011;65532;52.124;5.480;2023-05-20T10:48:27;1.80;;;0.52;;
76636;SDS011;65532;52.124;5.480;2023-05-20T10:50:55;2.70;;;0.55;;
76636;SDS011;65532;52.124;5.480;2023-05-20T10:53:24;3.10;;;0.50;;
76636;SDS011;65532;52.124;5.480;2023-05-20T10:55:59;2.97;;;0.50;;
76636;SDS011;65532;52.124;5.480;2023-05-20T10:58:26;2.45;;;0.50;;
76636;SDS011;65532;52.124;5.480;2023-05-20T11:00:53;5.40;;;0.88;;
76636;SDS011;65532;52.124;5.480;2023-05-20T11:03:21;7.15;;;0.95;;
76636;SDS011;65532;52.124;5.480;2023-05-20T11:05:48;2.65;;;0.70;;
76636;SDS011;65532;52.124;5.480;2023-05-20T11:08:16;7.38;;;0.80;;
76636;SDS011;65532;52.124;5.480;2023-05-20T11:10:57;2.25;;;0.90;;
76636;SDS011;65532;52.124;5.480;2023-05-20T11:13:25;6.57;;;0.73;;
76636;SDS011;65532;52.124;5.480;2023-05-20T11:15:51;3.05;;;0.55;;
76636;SDS011;65532;52.124;5.480;2023-05-20T11:18:18;5.47;;;0.60;;
76636;SDS011;65532;52.124;5.480;2023-05-20T11:20:45;4.95;;;0.47;;
76636;SDS011;65532;52.124;5.480;2023-05-20T11:23:13;4.53;;;0.60;;
76636;SDS011;65532;52.124;5.480;2023-05-20T11:25:40;2.92;;;0.47;;
76636;SDS011;65532;52.124;5.480;2023-05-20T11:28:13;2.50;;;0.45;;
76636;SDS011;65532;52.124;5.480;2023-05-20T11:30:41;3.03;;;0.80;;
76636;SDS011;65532;52.124;5.480;2023-05-20T11:33:10;2.38;;;0.57;;
76636;SDS011;65532;52.124;5.480;2023-05-20T11:35:43;4.18;;;1.35;;
76636;SDS011;65532;52.124;5.480;2023-05-20T11:38:14;2.55;;;0.55;;
76636;SDS011;65532;52.124;5.480;2023-05-20T11:40:44;2.55;;;0.70;;
76636;SDS011;65532;52.124;5.480;2023-05-20T11:43:19;3.15;;;0.70;;
76636;SDS011;65532;52.124;5.480;2023-05-20T11:45:47;4.43;;;0.57;;
76636;SDS011;65532;52.124;5.480;2023-05-20T11:48:18;1.90;;;0.30;;
76636;SDS011;65532;52.124;5.480;2023-05-20T11:50:45;3.08;;;0.22;;
76636;SDS011;65532;52.124;5.480;2023-05-20T11:53:13;3.13;;;0.52;;
76636;SDS011;65532;52.124;5.480;2023-05-20T11:55:48;2.78;;;1.17;;
76636;SDS011;65532;52.124;5.480;2023-05-20T11:58:19;2.90;;;0.38;;
76636;SDS011;65532;52.124;5.480;2023-05-20T12:00:47;2.45;;;0.80;;
76636;SDS011;65532;52.124;5.480;2023-05-20T12:03:27;1.48;;;0.35;;
76636;SDS011;65532;52.124;5.480;2023-05-20T12:05:54;2.65;;;0.30;;
76636;SDS011;65532;52.124;5.480;2023-05-20T12:08:20;4.22;;;0.95;;
76636;SDS011;65532;52.124;5.480;2023-05-20T12:10:48;4.30;;;0.52;;
76636;SDS011;65532;52.124;5.480;2023-05-20T12:13:14;4.35;;;0.82;;
76636;SDS011;65532;52.124;5.480;2023-05-20T12:15:41;4.80;;;0.68;;
76636;SDS011;65532;52.124;5.480;2023-05-20T12:18:07;2.50;;;0.45;;
76636;SDS011;65532;52.124;5.480;2023-05-20T12:20:35;3.63;;;0.43;;
76636;SDS011;65532;52.124;5.480;2023-05-20T12:23:03;2.97;;;0.35;;
76636;SDS011;65532;52.124;5.480;2023-05-20T12:25:29;3.28;;;0.30;;
76636;SDS011;65532;52.124;5.480;2023-05-20T12:27:57;3.85;;;0.80;;
76636;SDS011;65532;52.124;5.480;2023-05-20T12:30:24;1.83;;;0.32;;
76636;SDS011;65532;52.124;5.480;2023-05-20T12:32:51;3.63;;;0.75;;
76636;SDS011;65532;52.124;5.480;2023-05-20T12:35:23;2.53;;;0.57;;
76636;SDS011;65532;52.124;5.480;2023-05-20T12:38:06;2.28;;;0.30;;
76636;SDS011;65532;52.124;5.480;2023-05-20T12:40:34;2.40;;;0.90;;
76636;SDS011;65532;52.124;5.480;2023-05-20T12:43:03;1.80;;;0.55;;
76636;SDS011;65532;52.124;5.480;2023-05-20T12:45:30;2.58;;;0.40;;
76636;SDS011;65532;52.124;5.480;2023-05-20T12:47:57;1.65;;;0.52;;
76636;SDS011;65532;52.124;5.480;2023-05-20T12:50:24;3.05;;;0.70;;
76636;SDS011;65532;52.124;5.480;2023-05-20T12:52:51;2.15;;;0.40;;
76636;SDS011;65532;52.124;5.480;2023-05-20T12:55:18;2.50;;;0.43;;
76636;SDS011;65532;52.124;5.480;2023-05-20T12:57:45;2.35;;;0.40;;
76636;SDS011;65532;52.124;5.480;2023-05-20T13:00:12;2.45;;;0.93;;
76636;SDS011;65532;52.124;5.480;2023-05-20T13:02:40;3.33;;;0.60;;
76636;SDS011;65532;52.124;5.480;2023-05-20T13:05:08;3.28;;;0.60;;
76636;SDS011;65532;52.124;5.480;2023-05-20T13:07:35;5.25;;;0.70;;
76636;SDS011;65532;52.124;5.480;2023-05-20T13:10:01;1.65;;;0.30;;
76636;SDS011;65532;52.124;5.480;2023-05-20T13:12:28;3.08;;;0.40;;
76636;SDS011;65532;52.124;5.480;2023-05-20T13:14:54;3.38;;;0.50;;
76636;SDS011;65532;52.124;5.480;2023-05-20T13:17:21;1.77;;;0.32;;
76636;SDS011;65532;52.124;5.480;2023-05-20T13:19:47;2.40;;;0.60;;
76636;SDS011;65532;52.124;5.480;2023-05-20T13:22:14;2.85;;;0.82;;
76636;SDS011;65532;52.124;5.480;2023-05-20T13:24:41;3.17;;;0.30;;
76636;SDS011;65532;52.124;5.480;2023-05-20T13:27:07;1.73;;;0.55;;
76636;SDS011;65532;52.124;5.480;2023-05-20T13:29:33;1.40;;;0.30;;
76636;SDS011;65532;52.124;5.480;2023-05-20T13:32:00;5.20;;;0.63;;
76636;SDS011;65532;52.124;5.480;2023-05-20T13:34:28;1.85;;;0.32;;
76636;SDS011;65532;52.124;5.480;2023-05-20T13:36:55;2.20;;;0.50;;
76636;SDS011;65532;52.124;5.480;2023-05-20T13:39:21;3.05;;;0.63;;
76636;SDS011;65532;52.124;5.480;2023-05-20T13:41:48;3.08;;;0.50;;
76636;SDS011;65532;52.124;5.480;2023-05-20T13:44:15;2.35;;;0.50;;
76636;SDS011;65532;52.124;5.480;2023-05-20T13:46:41;1.58;;;0.32;;
76636;SDS011;65532;52.124;5.480;2023-05-20T13:49:08;2.97;;;0.70;;
76636;SDS011;65532;52.124;5.480;2023-05-20T13:51:34;3.38;;;0.82;;
76636;SDS011;65532;52.124;5.480;2023-05-20T13:54:01;7.28;;;0.88;;
76636;SDS011;65532;52.124;5.480;2023-05-20T13:56:27;1.60;;;0.40;;
76636;SDS011;65532;52.124;5.480;2023-05-20T13:58:54;1.95;;;0.65;;
76636;SDS011;65532;52.124;5.480;2023-05-20T14:01:21;3.65;;;0.55;;
76636;SDS011;65532;52.124;5.480;2023-05-20T14:03:47;2.00;;;0.40;;
76636;SDS011;65532;52.124;5.480;2023-05-20T14:06:14;1.75;;;0.73;;
76636;SDS011;65532;52.124;5.480;2023-05-20T14:08:44;2.25;;;0.50;;
76636;SDS011;65532;52.124;5.480;2023-05-20T14:11:11;3.20;;;0.60;;
76636;SDS011;65532;52.124;5.480;2023-05-20T14:13:37;2.22;;;0.85;;
76636;SDS011;65532;52.124;5.480;2023-05-20T14:16:04;3.03;;;0.73;;
76636;SDS011;65532;52.124;5.480;2023-05-20T14:18:31;2.65;;;0.52;;
76636;SDS011;65532;52.124;5.480;2023-05-20T14:20:57;2.35;;;0.85;;
76636;SDS011;65532;52.124;5.480;2023-05-20T14:23:24;2.65;;;0.70;;
76636;SDS011;65532;52.124;5.480;2023-05-20T14:25:50;2.63;;;0.28;;
76636;SDS011;65532;52.124;5.480;2023-05-20T14:28:17;2.33;;;0.57;;
76636;SDS011;65532;52.124;5.480;2023-05-20T14:30:43;3.28;;;1.17;;
76636;SDS011;65532;52.124;5.480;2023-05-20T14:33:10;1.90;;;0.32;;
76636;SDS011;65532;52.124;5.480;2023-05-20T14:35:37;4.85;;;0.50;;
76636;SDS011;65532;52.124;5.480;2023-05-20T14:38:03;1.92;;;0.43;;
76636;SDS011;65532;52.124;5.480;2023-05-20T14:40:29;3.05;;;0.70;;
76636;SDS011;65532;52.124;5.480;2023-05-20T14:42:56;2.03;;;0.50;;
76636;SDS011;65532;52.124;5.480;2023-05-20T14:45:22;3.47;;;0.85;;
76636;SDS011;65532;52.124;5.480;2023-05-20T14:47:49;2.13;;;0.40;;
76636;SDS011;65532;52.124;5.480;2023-05-20T14:50:15;2.20;;;0.32;;
76636;SDS011;65532;52.124;5.480;2023-05-20T14:52:42;1.90;;;0.47;;
76636;SDS011;65532;52.124;5.480;2023-05-20T14:55:08;3.58;;;0.60;;
76636;SDS011;65532;52.124;5.480;2023-05-20T14:57:35;3.03;;;0.90;;
76636;SDS011;65532;52.124;5.480;2023-05-20T15:00:02;3.47;;;0.55;;
76636;SDS011;65532;52.124;5.480;2023-05-20T15:02:29;2.85;;;0.52;;